createdAt,value
2023-09-06T00:00:27.940Z,15.72
2023-09-06T00:02:54.677Z,15.76
2023-09-06T00:05:21.080Z,15.69
2023-09-06T00:07:47.497Z,15.73
2023-09-06T00:10:13.923Z,15.70
2023-09-06T00:12:40.344Z,15.70
2023-09-06T00:15:06.776Z,15.69
2023-09-06T00:17:33.175Z,15.72
2023-09-06T00:19:59.623Z,15.73
2023-09-06T00:22:26.062Z,15.79
2023-09-06T00:24:52.512Z,15.66
2023-09-06T00:27:18.934Z,15.63
2023-09-06T00:29:45.554Z,15.70
2023-09-06T00:32:12.007Z,15.61
2023-09-06T00:34:38.425Z,15.63
2023-09-06T00:37:04.838Z,15.65
2023-09-06T00:39:31.303Z,15.63
2023-09-06T00:41:57.796Z,15.62
2023-09-06T00:44:24.230Z,15.62
2023-09-06T00:46:50.676Z,15.59
2023-09-06T00:49:17.209Z,15.55
2023-09-06T00:51:44.616Z,15.57
2023-09-06T00:54:11.078Z,15.58
2023-09-06T00:56:37.475Z,15.57
2023-09-06T00:59:03.878Z,15.59
2023-09-06T01:01:30.808Z,15.57
2023-09-06T01:03:57.441Z,15.61
2023-09-06T01:06:23.876Z,15.54
2023-09-06T01:08:50.494Z,15.57
2023-09-06T01:11:16.897Z,15.57
2023-09-06T01:13:43.518Z,15.55
2023-09-06T01:16:10.221Z,15.54
2023-09-06T01:18:36.923Z,15.58
2023-09-06T01:21:03.393Z,15.55
2023-09-06T01:23:29.768Z,15.55
2023-09-06T01:25:56.224Z,15.52
2023-09-06T01:28:22.848Z,15.52
2023-09-06T01:30:49.601Z,15.54
2023-09-06T01:33:16.650Z,15.54
2023-09-06T01:35:43.037Z,15.54
2023-09-06T01:38:09.429Z,15.54
2023-09-06T01:40:35.813Z,15.55
2023-09-06T01:43:02.217Z,15.51
2023-09-06T01:45:28.642Z,15.52
2023-09-06T01:47:55.377Z,15.54
2023-09-06T01:50:21.820Z,15.51
2023-09-06T01:52:48.211Z,15.52
2023-09-06T01:55:14.675Z,15.51
2023-09-06T01:57:41.243Z,15.49
2023-09-06T02:00:07.884Z,15.49
2023-09-06T02:02:34.320Z,15.51
2023-09-06T02:05:00.749Z,15.51
2023-09-06T02:07:27.358Z,15.51
2023-09-06T02:09:53.789Z,15.49
2023-09-06T02:12:20.198Z,15.51
2023-09-06T02:14:46.630Z,15.49
2023-09-06T02:17:13.069Z,15.49
2023-09-06T02:19:39.710Z,15.51
2023-09-06T02:22:06.168Z,15.49
2023-09-06T02:24:32.567Z,15.51
2023-09-06T02:26:59.002Z,15.49
2023-09-06T02:29:25.419Z,15.49
2023-09-06T02:31:51.926Z,15.51
2023-09-06T02:34:18.396Z,15.48
2023-09-06T02:36:45.109Z,15.49
2023-09-06T02:39:11.589Z,15.51
2023-09-06T02:41:37.972Z,15.48
2023-09-06T02:44:04.564Z,15.49
2023-09-06T02:46:31.053Z,15.48
2023-09-06T02:48:57.470Z,15.47
2023-09-06T02:51:23.869Z,15.48
2023-09-06T02:53:50.253Z,15.45
2023-09-06T02:56:16.672Z,15.47
2023-09-06T02:58:43.094Z,15.49
2023-09-06T03:01:09.779Z,15.51
2023-09-06T03:03:36.435Z,15.49
2023-09-06T03:06:02.941Z,15.49
2023-09-06T03:08:30.384Z,15.47
2023-09-06T03:10:57.539Z,15.47
2023-09-06T03:13:23.957Z,15.45
2023-09-06T03:15:50.634Z,15.45
2023-09-06T03:18:17.255Z,15.45
2023-09-06T03:20:43.641Z,15.45
2023-09-06T03:23:10.183Z,15.47
2023-09-06T03:25:36.876Z,15.47
2023-09-06T03:28:03.302Z,15.47
2023-09-06T03:30:29.705Z,15.47
2023-09-06T03:32:56.136Z,15.44
2023-09-06T03:35:22.564Z,15.44
2023-09-06T03:37:49.021Z,15.44
2023-09-06T03:40:15.465Z,15.42
2023-09-06T03:42:42.067Z,15.44
2023-09-06T03:45:08.449Z,15.44
2023-09-06T03:47:35.057Z,15.44
2023-09-06T03:50:01.688Z,15.44
2023-09-06T03:52:28.105Z,15.47
2023-09-06T03:54:54.491Z,15.44
2023-09-06T03:57:20.874Z,15.45
2023-09-06T03:59:47.389Z,15.41
2023-09-06T04:02:13.883Z,15.42
2023-09-06T04:04:40.450Z,15.44
2023-09-06T04:07:06.916Z,15.42
2023-09-06T04:09:33.322Z,15.44
2023-09-06T04:11:59.730Z,15.41
2023-09-06T04:14:26.179Z,15.42
2023-09-06T04:16:52.682Z,15.44
2023-09-06T04:19:19.084Z,15.39
2023-09-06T04:21:45.446Z,15.39
2023-09-06T04:24:12.067Z,15.41
2023-09-06T04:26:38.488Z,15.41
2023-09-06T04:29:05.120Z,15.42
2023-09-06T04:31:31.633Z,15.38
2023-09-06T04:33:58.287Z,15.41
2023-09-06T04:36:24.889Z,15.38
2023-09-06T04:38:51.261Z,15.38
2023-09-06T04:41:17.690Z,15.41
2023-09-06T04:43:44.600Z,15.38
2023-09-06T04:46:11.305Z,15.39
2023-09-06T04:48:38.453Z,15.39
2023-09-06T04:51:04.911Z,15.38
2023-09-06T04:53:31.604Z,15.38
2023-09-06T04:55:58.048Z,15.39
2023-09-06T05:01:11.928Z,15.37
2023-09-06T05:03:38.595Z,15.37
2023-09-06T05:06:05.371Z,15.38
2023-09-06T05:08:32.342Z,15.38
2023-09-06T05:10:58.953Z,15.37
2023-09-06T05:13:25.357Z,15.35
2023-09-06T05:15:51.732Z,15.39
2023-09-06T05:18:18.119Z,15.38
2023-09-06T05:20:44.503Z,15.39
2023-09-06T05:23:11.110Z,15.39
2023-09-06T05:25:37.558Z,15.37
2023-09-06T05:28:04.195Z,15.38
2023-09-06T05:30:31.066Z,15.37
2023-09-06T05:32:57.717Z,15.37
2023-09-06T05:35:24.357Z,15.37
2023-09-06T05:37:50.767Z,15.37
2023-09-06T05:40:17.176Z,15.37
2023-09-06T05:42:43.569Z,15.37
2023-09-06T05:45:09.958Z,15.34
2023-09-06T05:47:36.645Z,15.35
2023-09-06T05:50:03.120Z,15.37
2023-09-06T05:52:29.545Z,15.35
2023-09-06T05:54:56.089Z,15.32
2023-09-06T05:57:22.600Z,15.35
2023-09-06T05:59:49.067Z,15.35
2023-09-06T06:02:15.645Z,15.35
2023-09-06T06:04:42.179Z,15.35
2023-09-06T06:07:08.653Z,15.35
2023-09-06T06:09:35.307Z,15.37
2023-09-06T06:12:01.709Z,15.34
2023-09-06T06:14:30.501Z,15.32
2023-09-06T06:16:56.950Z,15.35
2023-09-06T06:19:23.383Z,15.32
2023-09-06T06:21:49.806Z,15.31
2023-09-06T06:24:16.513Z,15.34
2023-09-06T06:26:42.919Z,15.35
2023-09-06T06:29:09.570Z,15.34
2023-09-06T06:31:36.568Z,15.35
2023-09-06T06:34:03.011Z,15.35
2023-09-06T06:36:29.635Z,15.37
2023-09-06T06:38:56.026Z,15.32
2023-09-06T06:41:22.459Z,15.32
2023-09-06T06:43:48.946Z,15.32
2023-09-06T06:46:15.385Z,15.34
2023-09-06T06:48:42.602Z,15.32
2023-09-06T06:51:08.999Z,15.34
2023-09-06T06:53:35.390Z,15.37
2023-09-06T06:56:01.873Z,15.32
2023-09-06T06:58:29.027Z,15.31
2023-09-06T07:00:55.781Z,15.34
2023-09-06T07:03:22.316Z,15.32
2023-09-06T07:05:48.784Z,15.34
2023-09-06T07:08:15.187Z,15.34
2023-09-06T07:10:41.733Z,15.32
2023-09-06T07:13:08.156Z,15.32
2023-09-06T07:15:34.681Z,15.32
2023-09-06T07:18:01.710Z,15.31
2023-09-06T07:20:28.288Z,15.31
2023-09-06T07:22:54.720Z,15.34
2023-09-06T07:25:21.348Z,15.35
2023-09-06T07:27:47.767Z,15.32
2023-09-06T07:30:14.177Z,15.34
2023-09-06T07:32:40.596Z,15.35
2023-09-06T07:35:07.073Z,15.34
2023-09-06T07:37:33.631Z,15.32
2023-09-06T07:40:00.055Z,15.31
2023-09-06T07:42:27.479Z,15.31
2023-09-06T07:44:53.861Z,15.32
2023-09-06T07:47:20.369Z,15.28
2023-09-06T07:49:46.899Z,15.28
2023-09-06T07:52:13.321Z,15.30
2023-09-06T07:54:39.708Z,15.30
2023-09-06T07:57:06.142Z,15.31
2023-09-06T07:59:32.797Z,15.32
2023-09-06T08:01:59.244Z,15.30
2023-09-06T08:04:25.724Z,15.30
2023-09-06T08:06:52.330Z,15.28
2023-09-06T08:09:18.887Z,15.28
2023-09-06T08:11:48.272Z,15.28
2023-09-06T08:14:14.698Z,15.27
2023-09-06T08:16:41.177Z,15.30
2023-09-06T08:19:07.730Z,15.27
2023-09-06T08:21:34.168Z,15.28
2023-09-06T08:24:00.588Z,15.27
2023-09-06T08:26:27.020Z,15.28
2023-09-06T08:28:53.468Z,15.28
2023-09-06T08:31:19.955Z,15.27
2023-09-06T08:33:46.504Z,15.28
2023-09-06T08:36:13.357Z,15.26
2023-09-06T08:38:39.837Z,15.26
2023-09-06T08:41:06.217Z,15.24
2023-09-06T08:43:32.631Z,15.21
2023-09-06T08:45:59.322Z,15.27
2023-09-06T08:48:26.089Z,15.26
2023-09-06T08:50:55.016Z,15.26
2023-09-06T08:53:22.894Z,15.24
2023-09-06T08:55:49.329Z,15.26
2023-09-06T08:58:15.946Z,15.26
2023-09-06T09:00:42.388Z,15.24
2023-09-06T09:03:08.880Z,15.24
2023-09-06T09:05:35.406Z,15.23
2023-09-06T09:08:01.938Z,15.27
2023-09-06T09:10:28.570Z,15.24
2023-09-06T09:12:55.228Z,15.24
2023-09-06T09:15:24.081Z,15.24
2023-09-06T09:18:00.308Z,15.24
2023-09-06T09:20:28.813Z,15.26
2023-09-06T09:22:55.519Z,15.28
2023-09-06T09:25:21.914Z,15.26
2023-09-06T09:27:48.519Z,15.28
2023-09-06T09:30:15.143Z,15.28
2023-09-06T09:32:41.588Z,15.28
2023-09-06T09:35:08.021Z,15.30
2023-09-06T09:37:36.860Z,15.30
2023-09-06T09:40:04.145Z,15.30
2023-09-06T09:42:30.590Z,15.30
2023-09-06T09:44:57.450Z,15.34
2023-09-06T09:47:43.827Z,15.34
2023-09-06T09:50:10.486Z,15.34
2023-09-06T09:52:36.910Z,15.41
2023-09-06T09:55:03.358Z,15.51
2023-09-06T09:57:30.004Z,15.58
2023-09-06T09:59:56.468Z,15.63
2023-09-06T10:02:35.047Z,15.55
2023-09-06T10:05:06.880Z,15.47
2023-09-06T10:07:48.382Z,15.44
2023-09-06T10:10:16.182Z,15.51
2023-09-06T10:12:42.818Z,15.65
2023-09-06T10:15:09.248Z,15.66
2023-09-06T10:17:35.670Z,15.52
2023-09-06T10:20:02.104Z,15.55
2023-09-06T10:22:28.503Z,15.49
2023-09-06T10:24:54.926Z,15.62
2023-09-06T10:27:21.356Z,15.66
2023-09-06T10:29:58.066Z,15.69
2023-09-06T10:32:30.184Z,15.70
2023-09-06T10:34:56.645Z,15.59
2023-09-06T10:37:23.277Z,15.58
2023-09-06T10:39:49.769Z,15.68
2023-09-06T10:42:16.404Z,15.61
2023-09-06T10:44:43.814Z,15.65
2023-09-06T10:47:10.765Z,15.70
2023-09-06T10:49:37.191Z,15.70
2023-09-06T10:52:04.741Z,15.65
2023-09-06T10:54:31.620Z,15.62
2023-09-06T10:56:58.080Z,15.75
2023-09-06T10:59:24.513Z,15.58
2023-09-06T11:01:56.073Z,15.45
2023-09-06T11:04:23.046Z,15.48
2023-09-06T11:06:49.496Z,15.54
2023-09-06T11:09:15.957Z,15.58
2023-09-06T11:11:42.349Z,15.61
2023-09-06T11:14:08.830Z,15.59
2023-09-06T11:16:35.234Z,15.62
2023-09-06T11:19:01.612Z,15.63
2023-09-06T11:21:28.073Z,15.62
2023-09-06T11:23:54.462Z,15.66
2023-09-06T11:26:20.933Z,15.69
2023-09-06T11:28:47.427Z,15.69
2023-09-06T11:31:13.965Z,15.69
2023-09-06T11:33:40.400Z,15.72
2023-09-06T11:36:07.397Z,15.69
2023-09-06T11:38:33.831Z,15.75
2023-09-06T11:41:00.253Z,15.68
2023-09-06T11:43:26.729Z,15.55
2023-09-06T11:45:53.164Z,15.62
2023-09-06T11:48:19.787Z,15.63
2023-09-06T11:50:46.202Z,15.72
2023-09-06T11:53:12.865Z,15.63
2023-09-06T11:55:39.291Z,15.49
2023-09-06T11:58:05.688Z,15.45
2023-09-06T12:00:32.143Z,15.48
2023-09-06T12:02:58.717Z,15.48
2023-09-06T12:05:34.910Z,15.48
2023-09-06T12:08:09.025Z,15.62
2023-09-06T12:10:35.414Z,15.70
2023-09-06T12:13:02.086Z,15.66
2023-09-06T12:15:28.688Z,15.68
2023-09-06T12:17:55.185Z,15.72
2023-09-06T12:20:21.759Z,15.79
2023-09-06T12:22:48.200Z,15.70
2023-09-06T12:25:14.608Z,15.73
2023-09-06T12:27:41.009Z,15.55
2023-09-06T12:30:08.718Z,15.51
2023-09-06T12:32:35.388Z,15.68
2023-09-06T12:35:01.961Z,15.68
2023-09-06T12:37:28.363Z,15.72
2023-09-06T12:39:54.784Z,15.70
2023-09-06T12:42:21.175Z,15.83
2023-09-06T12:44:47.788Z,15.73
2023-09-06T12:47:14.245Z,15.81
2023-09-06T12:49:40.649Z,15.83
2023-09-06T12:52:07.048Z,15.70
2023-09-06T12:54:33.458Z,15.76
2023-09-06T12:57:00.128Z,15.79
2023-09-06T12:59:26.574Z,15.81
2023-09-06T13:01:53.043Z,15.81
2023-09-06T13:04:20.091Z,15.79
2023-09-06T13:06:46.793Z,15.87
2023-09-06T13:09:13.221Z,15.78
2023-09-06T13:11:39.646Z,15.83
2023-09-06T13:14:06.301Z,15.76
2023-09-06T13:16:32.799Z,15.85
2023-09-06T13:18:59.349Z,15.83
2023-09-06T13:21:25.841Z,15.86
2023-09-06T13:23:52.469Z,15.89
2023-09-06T13:26:19.100Z,15.79
2023-09-06T13:28:45.736Z,15.69
2023-09-06T13:31:12.292Z,15.72
2023-09-06T13:33:39.243Z,15.79
2023-09-06T13:36:06.043Z,15.97
2023-09-06T13:38:32.448Z,15.81
2023-09-06T13:40:58.843Z,15.68
2023-09-06T13:43:25.262Z,15.89
2023-09-06T13:45:51.698Z,15.87
2023-09-06T13:48:18.424Z,15.83
2023-09-06T13:50:44.953Z,15.87
2023-09-06T13:53:11.348Z,15.97
2023-09-06T13:55:37.981Z,15.79
2023-09-06T13:58:04.671Z,15.81
2023-09-06T14:00:31.110Z,15.87
2023-09-06T14:02:57.665Z,15.72
2023-09-06T14:05:24.508Z,15.83
2023-09-06T14:07:50.950Z,15.83
2023-09-06T14:10:17.614Z,15.79
2023-09-06T14:12:44.005Z,15.83
2023-09-06T14:15:10.406Z,15.83
2023-09-06T14:17:36.853Z,15.95
2023-09-06T14:20:03.267Z,15.93
2023-09-06T14:22:29.691Z,15.87
2023-09-06T14:24:56.065Z,15.97
2023-09-06T14:27:22.473Z,15.93
2023-09-06T14:29:48.882Z,15.92
2023-09-06T14:32:15.683Z,15.72
2023-09-06T14:34:42.117Z,15.79
2023-09-06T14:37:08.629Z,15.86
2023-09-06T14:39:35.090Z,15.93
2023-09-06T14:42:01.726Z,15.92
2023-09-06T14:44:28.190Z,15.97
2023-09-06T14:46:54.674Z,15.96
2023-09-06T14:49:21.139Z,16.03
2023-09-06T14:51:47.543Z,15.95
2023-09-06T14:54:14.043Z,16.05
2023-09-06T14:56:40.553Z,15.90
2023-09-06T14:59:07.252Z,15.99
2023-09-06T15:01:33.725Z,16.00
2023-09-06T15:04:00.269Z,16.05
2023-09-06T15:06:31.531Z,15.95
2023-09-06T15:09:05.860Z,15.89
2023-09-06T15:11:32.323Z,15.92
2023-09-06T15:13:58.748Z,15.99
2023-09-06T15:16:25.184Z,16.02
2023-09-06T15:18:51.675Z,16.03
2023-09-06T15:21:18.151Z,15.96
2023-09-06T15:23:44.591Z,16.12
2023-09-06T15:26:11.256Z,16.02
2023-09-06T15:28:37.878Z,15.95
2023-09-06T15:31:04.562Z,16.00
2023-09-06T15:33:31.123Z,15.83
2023-09-06T15:35:57.581Z,15.75
2023-09-06T15:38:24.056Z,15.87
2023-09-06T15:40:50.672Z,15.90
2023-09-06T15:43:17.043Z,16.06
2023-09-06T15:45:43.651Z,16.09
2023-09-06T15:48:12.924Z,16.00
2023-09-06T15:50:39.403Z,16.09
2023-09-06T15:53:05.885Z,16.20
2023-09-06T15:55:32.522Z,15.85
2023-09-06T15:58:01.571Z,16.05
2023-09-06T16:00:32.841Z,15.92
2023-09-06T16:03:00.270Z,16.02
2023-09-06T16:05:27.134Z,15.82
2023-09-06T16:07:53.887Z,15.72
2023-09-06T16:10:20.524Z,16.00
2023-09-06T16:12:49.412Z,16.18
2023-09-06T16:15:16.329Z,15.86
2023-09-06T16:17:42.845Z,15.95
2023-09-06T16:20:09.351Z,16.13
2023-09-06T16:22:35.728Z,15.99
2023-09-06T16:25:02.140Z,16.20
2023-09-06T16:27:28.797Z,16.16
2023-09-06T16:29:55.300Z,16.20
2023-09-06T16:32:21.892Z,16.24
2023-09-06T16:34:48.545Z,16.02
2023-09-06T16:37:14.959Z,16.10
2023-09-06T16:39:41.442Z,16.24
2023-09-06T16:42:07.866Z,16.10
2023-09-06T16:44:34.275Z,16.09
2023-09-06T16:47:00.802Z,16.12
2023-09-06T16:49:27.358Z,16.16
2023-09-06T16:51:54.283Z,16.13
2023-09-06T16:54:20.740Z,16.07
2023-09-06T16:56:47.136Z,16.10
2023-09-06T16:59:13.606Z,16.09
2023-09-06T17:01:40.096Z,15.99
2023-09-06T17:04:06.702Z,15.96
2023-09-06T17:06:33.176Z,16.24
2023-09-06T17:08:59.620Z,16.28
2023-09-06T17:11:26.069Z,16.13
2023-09-06T17:13:52.689Z,16.07
2023-09-06T17:16:19.213Z,16.18
2023-09-06T17:18:46.111Z,16.20
2023-09-06T17:21:12.602Z,16.20
2023-09-06T17:23:49.653Z,16.05
2023-09-06T17:26:23.768Z,15.93
2023-09-06T17:28:50.156Z,15.82
2023-09-06T17:31:16.574Z,15.75
2023-09-06T17:33:42.993Z,15.78
2023-09-06T17:36:09.586Z,15.73
2023-09-06T17:38:36.201Z,15.73
2023-09-06T17:41:02.643Z,15.78
2023-09-06T17:43:29.797Z,15.79
2023-09-06T17:45:56.211Z,15.76
2023-09-06T17:48:22.814Z,15.72
2023-09-06T17:50:49.365Z,15.70
2023-09-06T17:53:15.839Z,15.72
2023-09-06T17:55:42.319Z,15.72
2023-09-06T17:58:08.729Z,15.70
2023-09-06T18:00:35.117Z,15.70
2023-09-06T18:03:01.696Z,15.72
2023-09-06T18:05:28.660Z,15.81
2023-09-06T18:07:55.306Z,15.73
2023-09-06T18:10:21.725Z,15.70
2023-09-06T18:12:48.118Z,15.83
2023-09-06T18:15:14.550Z,15.81
2023-09-06T18:17:41.006Z,15.75
2023-09-06T18:20:07.521Z,15.72
2023-09-06T18:22:33.954Z,15.89
2023-09-06T18:25:00.578Z,15.83
2023-09-06T18:27:26.998Z,15.83
2023-09-06T18:29:53.389Z,15.82
2023-09-06T18:32:19.876Z,15.79
2023-09-06T18:34:46.381Z,15.99
2023-09-06T18:37:12.846Z,15.90
2023-09-06T18:39:39.515Z,15.93
2023-09-06T18:42:05.959Z,16.05
2023-09-06T18:44:32.358Z,15.90
2023-09-06T18:46:58.816Z,15.96
2023-09-06T18:49:25.557Z,15.82
2023-09-06T18:51:51.956Z,15.97
2023-09-06T18:54:18.342Z,16.02
2023-09-06T18:56:44.728Z,16.06
2023-09-06T18:59:11.329Z,15.85
2023-09-06T19:01:37.942Z,16.12
2023-09-06T19:04:04.632Z,15.96
2023-09-06T19:06:31.017Z,15.99
2023-09-06T19:08:57.635Z,15.99
2023-09-06T19:11:26.710Z,16.07
2023-09-06T19:13:53.391Z,15.90
2023-09-06T19:16:19.866Z,15.82
2023-09-06T19:18:46.266Z,16.00
2023-09-06T19:21:12.674Z,16.09
2023-09-06T19:23:39.119Z,15.82
2023-09-06T19:26:05.554Z,15.97
2023-09-06T19:28:32.438Z,15.79
2023-09-06T19:30:59.182Z,15.83
2023-09-06T19:33:25.911Z,15.87
2023-09-06T19:35:52.367Z,15.96
2023-09-06T19:38:21.608Z,15.87
2023-09-06T19:40:49.193Z,15.87
2023-09-06T19:43:15.576Z,15.85
2023-09-06T19:45:41.993Z,15.79
2023-09-06T19:48:08.404Z,15.96
2023-09-06T19:50:35.193Z,15.90
2023-09-06T19:53:06.229Z,16.02
2023-09-06T19:55:32.680Z,15.83
2023-09-06T19:57:59.099Z,15.92
2023-09-06T20:00:25.515Z,15.85
2023-09-06T20:02:52.071Z,16.09
2023-09-06T20:05:18.684Z,15.82
2023-09-06T20:07:45.137Z,15.90
2023-09-06T20:10:11.536Z,15.81
2023-09-06T20:12:37.942Z,15.78
2023-09-06T20:15:04.342Z,15.76
2023-09-06T20:17:30.810Z,15.92
2023-09-06T20:19:57.356Z,15.85
2023-09-06T20:22:24.534Z,16.00
2023-09-06T20:24:50.929Z,15.89
2023-09-06T20:27:17.331Z,15.81
2023-09-06T20:29:43.967Z,15.78
2023-09-06T20:32:10.395Z,15.87
2023-09-06T20:34:36.842Z,15.73
2023-09-06T20:37:03.251Z,16.03
2023-09-06T20:39:29.834Z,15.96
2023-09-06T20:41:56.239Z,15.78
2023-09-06T20:44:22.897Z,15.83
2023-09-06T20:46:49.313Z,16.13
2023-09-06T20:49:15.712Z,15.95
2023-09-06T20:51:42.116Z,16.21
2023-09-06T20:54:08.512Z,16.10
2023-09-06T20:56:34.938Z,16.14
2023-09-06T20:59:01.360Z,16.16
2023-09-06T21:01:27.848Z,16.12
2023-09-06T21:03:54.384Z,16.18
2023-09-06T21:06:21.437Z,16.07
2023-09-06T21:08:47.913Z,16.13
2023-09-06T21:11:14.421Z,16.09
2023-09-06T21:13:40.877Z,16.06
2023-09-06T21:16:07.289Z,16.03
2023-09-06T21:18:33.852Z,16.00
2023-09-06T21:21:00.593Z,15.76
2023-09-06T21:23:27.239Z,15.83
2023-09-06T21:25:53.616Z,15.85
2023-09-06T21:28:20.239Z,16.05
2023-09-06T21:30:46.647Z,15.78
2023-09-06T21:33:13.339Z,16.06
2023-09-06T21:35:39.776Z,16.12
2023-09-06T21:38:06.164Z,16.14
2023-09-06T21:40:32.568Z,16.14
2023-09-06T21:43:14.574Z,16.02
2023-09-06T21:45:44.060Z,15.81
2023-09-06T21:48:10.562Z,16.05
2023-09-06T21:50:37.331Z,16.06
2023-09-06T21:53:03.748Z,15.87
2023-09-06T21:55:30.139Z,16.16
2023-09-06T21:58:08.600Z,15.90
2023-09-06T22:00:36.497Z,15.81
2023-09-06T22:03:03.241Z,15.95
2023-09-06T22:05:29.765Z,15.96
2023-09-06T22:07:56.166Z,16.13
2023-09-06T22:10:22.809Z,16.12
2023-09-06T22:12:49.555Z,16.00
2023-09-06T22:15:16.044Z,15.97
2023-09-06T22:17:42.505Z,16.07
2023-09-06T22:20:09.179Z,16.12
2023-09-06T22:22:35.603Z,16.05
2023-09-06T22:25:02.133Z,15.87
2023-09-06T22:27:28.607Z,15.97
2023-09-06T22:29:55.376Z,15.92
2023-09-06T22:32:21.751Z,15.99
2023-09-06T22:34:48.129Z,15.97
2023-09-06T22:37:14.622Z,16.06
2023-09-06T22:39:41.239Z,16.07
2023-09-06T22:42:07.615Z,16.12
2023-09-06T22:44:34.016Z,16.09
2023-09-06T22:47:00.475Z,16.02
2023-09-06T22:49:27.267Z,16.17
2023-09-06T22:51:53.790Z,15.97
2023-09-06T22:54:20.262Z,16.16
2023-09-06T22:56:46.678Z,16.16
2023-09-06T22:59:13.080Z,16.23
2023-09-06T23:01:39.761Z,16.18
2023-09-06T23:04:06.299Z,16.25
2023-09-06T23:06:32.991Z,16.23
2023-09-06T23:08:59.397Z,16.17
2023-09-06T23:11:25.828Z,16.18
2023-09-06T23:13:52.235Z,16.23
2023-09-06T23:16:19.412Z,16.25
2023-09-06T23:18:46.059Z,16.28
2023-09-06T23:21:12.443Z,16.02
2023-09-06T23:23:39.041Z,16.27
2023-09-06T23:26:05.524Z,16.10
2023-09-06T23:28:32.399Z,16.17
2023-09-06T23:30:58.998Z,16.25
2023-09-06T23:33:25.420Z,16.16
2023-09-06T23:35:51.825Z,16.20
2023-09-06T23:41:05.460Z,16.14
2023-09-06T23:43:31.898Z,16.13
2023-09-06T23:45:58.339Z,16.05
2023-09-06T23:48:24.777Z,16.06
2023-09-06T23:50:51.157Z,16.12
2023-09-06T23:53:17.533Z,16.21
2023-09-06T23:55:43.927Z,16.23
2023-09-06T23:58:10.337Z,16.10
